< < Back
Terminal Aerodrome Forecast


Current Version              Previous Versions:   1  2  3  4  5  6  7  8  9  

Terminal Aerodrome Forecast

041
FTUS42 KILM 011700
TAFFLO
TAF
KFLO 011726Z 0118/0218 06006KT P6SM SKC
      TEMPO 0210/0212 1SM BR
     FM021400 26004KT P6SM FEW030=



Latest METAR

129
SAUS70 KWBC 012000 RRL
MTRFLO
METAR KFLO 011953Z VRB04KT 10SM CLR 29/17 A2996 RMK AO2 SLP143
T02890172


USA.gov is the U.S. government's official web portal to all federal, state and local government web resources and services.